createdAt,value
2022-11-26T00:02:18.808Z,100980.16
2022-11-26T00:05:08.268Z,100981.81
2022-11-26T00:08:00.372Z,100989.97
2022-11-26T00:10:50.777Z,100990.81
2022-11-26T00:13:39.498Z,100996.31
2022-11-26T00:16:28.368Z,100989.97
2022-11-26T00:19:18.353Z,100993.19
2022-11-26T00:22:07.184Z,100993.19
2022-11-26T00:24:56.318Z,101005.50
2022-11-26T00:27:44.951Z,101002.56
2022-11-26T00:30:33.716Z,101004.22
2022-11-26T00:33:22.347Z,101012.22
2022-11-26T00:36:18.528Z,101009.19
2022-11-26T00:39:09.036Z,101007.34
2022-11-26T00:41:57.584Z,101019.34
2022-11-26T00:44:46.401Z,101009.91
2022-11-26T00:50:25.104Z,101023.88
2022-11-26T00:53:16.691Z,101032.88
2022-11-26T00:56:05.346Z,101025.91
2022-11-26T00:58:53.918Z,101037.22
2022-11-26T01:01:42.578Z,101038.22
2022-11-26T01:04:31.169Z,101035.34
2022-11-26T01:07:19.839Z,101039.22
2022-11-26T01:10:16.902Z,101049.88
2022-11-26T01:13:05.547Z,101043.91
2022-11-26T01:15:54.086Z,101042.91
2022-11-26T01:18:42.747Z,101052.56
2022-11-26T01:21:33.385Z,101055.56
2022-11-26T01:24:22.042Z,101056.56
2022-11-26T01:27:12.860Z,101052.25
2022-11-26T01:30:01.498Z,101052.25
2022-11-26T01:32:50.587Z,101055.75
2022-11-26T01:35:39.619Z,101054.91
2022-11-26T01:38:28.289Z,101056.91
2022-11-26T01:41:22.837Z,101057.56
2022-11-26T01:44:19.231Z,101061.25
2022-11-26T01:47:22.069Z,101055.09
2022-11-26T01:50:46.923Z,101072.25
2022-11-26T01:53:48.417Z,101068.44
2022-11-26T01:56:39.823Z,101079.91
2022-11-26T01:59:31.652Z,101084.41
2022-11-26T02:02:21.817Z,101072.91
2022-11-26T02:05:13.543Z,101096.75
2022-11-26T02:08:02.572Z,101086.91
2022-11-26T02:10:53.207Z,101093.44
2022-11-26T02:13:42.018Z,101087.91
2022-11-26T02:16:58.211Z,101094.25
2022-11-26T02:20:12.523Z,101097.91
2022-11-26T02:23:26.576Z,101092.75
2022-11-26T02:26:43.720Z,101100.59
2022-11-26T02:30:02.021Z,101101.59
2022-11-26T02:33:00.206Z,101113.91
2022-11-26T02:35:50.502Z,101115.94
2022-11-26T02:38:40.059Z,101115.06
2022-11-26T02:41:33.852Z,101124.94
2022-11-26T02:44:24.259Z,101119.88
2022-11-26T02:47:16.788Z,101127.06
2022-11-26T02:50:08.957Z,101136.53
2022-11-26T02:52:59.208Z,101138.56
2022-11-26T02:55:49.809Z,101143.06
2022-11-26T02:58:38.592Z,101148.22
2022-11-26T03:01:31.844Z,101142.22
2022-11-26T03:04:24.905Z,101145.75
2022-11-26T03:07:14.887Z,101142.59
2022-11-26T03:10:04.493Z,101144.25
2022-11-26T03:12:53.217Z,101144.25
2022-11-26T03:15:41.836Z,101154.25
2022-11-26T03:18:30.574Z,101159.38
2022-11-26T03:21:20.481Z,101159.75
2022-11-26T03:24:09.354Z,101164.25
2022-11-26T03:26:57.964Z,101170.59
2022-11-26T03:29:46.705Z,101171.25
2022-11-26T03:32:35.325Z,101172.25
2022-11-26T03:35:24.018Z,101179.25
2022-11-26T03:38:13.958Z,101189.25
2022-11-26T03:41:04.605Z,101192.91
2022-11-26T03:43:53.162Z,101196.25
2022-11-26T03:46:42.023Z,101200.06
2022-11-26T03:49:33.472Z,101201.56
2022-11-26T03:52:22.139Z,101195.25
2022-11-26T03:55:12.272Z,101197.25
2022-11-26T03:58:01.030Z,101198.06
2022-11-26T04:00:49.661Z,101199.91
2022-11-26T04:03:38.541Z,101200.72
2022-11-26T04:06:27.404Z,101207.22
2022-11-26T04:09:18.426Z,101212.25
2022-11-26T04:12:08.650Z,101208.88
2022-11-26T04:14:57.256Z,101212.25
2022-11-26T04:17:45.995Z,101215.06
2022-11-26T04:20:34.573Z,101227.75
2022-11-26T04:23:23.516Z,101224.22
2022-11-26T04:26:12.141Z,101225.88
2022-11-26T04:29:02.236Z,101235.91
2022-11-26T04:31:51.095Z,101239.56
2022-11-26T04:34:40.050Z,101233.56
2022-11-26T04:37:28.854Z,101245.88
2022-11-26T04:40:18.607Z,101246.22
2022-11-26T04:43:07.364Z,101244.53
2022-11-26T04:45:57.450Z,101256.88
2022-11-26T04:48:46.124Z,101256.88
2022-11-26T04:51:34.753Z,101260.53
2022-11-26T04:54:23.557Z,101270.03
2022-11-26T04:57:12.225Z,101274.88
2022-11-26T05:00:00.949Z,101281.88
2022-11-26T05:02:50.926Z,101280.19
2022-11-26T05:05:39.705Z,101288.84
2022-11-26T05:08:28.500Z,101291.88
2022-11-26T05:11:17.163Z,101290.88
2022-11-26T05:14:05.825Z,101290.88
2022-11-26T05:16:54.567Z,101296.19
2022-11-26T05:19:44.580Z,101301.88
2022-11-26T05:22:33.304Z,101296.53
2022-11-26T05:25:22.001Z,101305.53
2022-11-26T05:28:10.603Z,101313.19
2022-11-26T05:31:00.787Z,101316.88
2022-11-26T05:33:49.402Z,101319.53
2022-11-26T05:36:39.358Z,101319.38
2022-11-26T05:39:28.155Z,101308.06
2022-11-26T05:42:16.732Z,101321.19
2022-11-26T05:45:06.395Z,101320.84
2022-11-26T05:47:55.064Z,101335.19
2022-11-26T05:50:43.665Z,101336.84
2022-11-26T05:53:33.621Z,101338.84
2022-11-26T05:56:22.175Z,101341.34
2022-11-26T05:59:10.809Z,101343.88
2022-11-26T06:01:59.523Z,101341.00
2022-11-26T06:04:48.150Z,101343.03
2022-11-26T06:07:40.619Z,101348.19
2022-11-26T06:10:33.422Z,101355.50
2022-11-26T06:13:22.082Z,101356.50
2022-11-26T06:16:10.875Z,101356.50
2022-11-26T06:19:00.062Z,101368.81
2022-11-26T06:21:48.644Z,101364.69
2022-11-26T06:24:37.953Z,101358.50
2022-11-26T06:27:28.126Z,101359.00
2022-11-26T06:30:16.784Z,101366.16
2022-11-26T06:33:05.444Z,101376.16
2022-11-26T06:35:54.036Z,101383.50
2022-11-26T06:38:43.307Z,101382.34
2022-11-26T06:41:34.120Z,101396.69
2022-11-26T06:44:24.123Z,101394.81
2022-11-26T06:47:12.969Z,101391.34
2022-11-26T06:50:04.150Z,101392.16
2022-11-26T06:52:56.603Z,101402.16
2022-11-26T06:55:45.379Z,101409.81
2022-11-26T06:58:34.239Z,101415.50
2022-11-26T07:01:26.112Z,101421.31
2022-11-26T07:04:15.024Z,101416.00
2022-11-26T07:07:03.676Z,101426.66
2022-11-26T07:09:52.202Z,101422.13
2022-11-26T07:12:40.879Z,101427.47
2022-11-26T07:15:29.638Z,101439.84
2022-11-26T07:18:19.617Z,101438.13
2022-11-26T07:21:09.175Z,101434.50
2022-11-26T07:23:57.864Z,101443.31
2022-11-26T07:26:46.539Z,101438.97
2022-11-26T07:29:35.206Z,101437.84
2022-11-26T07:32:23.847Z,101440.16
2022-11-26T07:35:13.926Z,101442.81
2022-11-26T07:38:02.569Z,101450.16
2022-11-26T07:40:51.179Z,101455.81
2022-11-26T07:43:40.851Z,101454.66
2022-11-26T07:46:29.519Z,101457.84
2022-11-26T07:49:18.237Z,101466.47
2022-11-26T07:52:08.301Z,101465.59
2022-11-26T07:54:56.855Z,101462.41
2022-11-26T07:57:45.420Z,101469.38
2022-11-26T08:00:34.022Z,101470.00
2022-11-26T08:03:22.686Z,101471.94
2022-11-26T08:06:13.352Z,101479.78
2022-11-26T08:09:04.690Z,101478.19
2022-11-26T08:11:53.287Z,101478.31
2022-11-26T08:14:41.859Z,101482.50
2022-11-26T08:17:30.479Z,101486.53
2022-11-26T08:20:20.001Z,101490.72
2022-11-26T08:23:10.840Z,101491.28
2022-11-26T08:29:09.608Z,101497.13
2022-11-26T08:31:58.198Z,101504.47
2022-11-26T08:34:46.757Z,101495.97
2022-11-26T08:37:35.373Z,101499.84
2022-11-26T08:40:24.006Z,101502.19
2022-11-26T08:43:13.955Z,101497.84
2022-11-26T08:46:02.611Z,101502.88
2022-11-26T08:48:51.240Z,101514.88
2022-11-26T08:51:39.895Z,101504.69
2022-11-26T08:54:30.766Z,101514.72
2022-11-26T08:57:19.330Z,101507.22
2022-11-26T09:00:10.661Z,101515.53
2022-11-26T09:02:59.355Z,101523.88
2022-11-26T09:05:48.082Z,101523.88
2022-11-26T09:08:57.875Z,101532.03
2022-11-26T09:11:49.421Z,101529.16
2022-11-26T09:14:40.287Z,101536.16
2022-11-26T09:17:31.662Z,101539.53
2022-11-26T09:20:20.559Z,101539.88
2022-11-26T09:23:09.192Z,101539.56
2022-11-26T09:25:57.871Z,101551.56
2022-11-26T09:28:46.500Z,101540.53
2022-11-26T09:31:35.141Z,101541.22
2022-11-26T09:34:25.188Z,101539.56
2022-11-26T09:37:13.746Z,101544.22
2022-11-26T09:40:02.449Z,101551.56
2022-11-26T09:43:04.389Z,101548.53
2022-11-26T09:45:59.251Z,101553.22
2022-11-26T09:48:48.142Z,101552.38
2022-11-26T09:51:38.239Z,101553.56
2022-11-26T09:54:28.844Z,101547.22
2022-11-26T09:57:23.553Z,101548.88
2022-11-26T10:00:24.529Z,101556.34
2022-11-26T10:03:15.645Z,101561.88
2022-11-26T10:06:08.230Z,101561.88
2022-11-26T10:09:19.519Z,101563.53
2022-11-26T10:12:24.717Z,101566.88
2022-11-26T10:15:17.906Z,101566.88
2022-11-26T10:18:17.000Z,101571.16
2022-11-26T10:21:26.956Z,101574.19
2022-11-26T10:24:28.433Z,101575.84
2022-11-26T10:27:18.327Z,101577.84
2022-11-26T10:30:18.343Z,101572.50
2022-11-26T10:33:08.416Z,101585.50
2022-11-26T10:35:57.076Z,101581.34
2022-11-26T10:38:45.715Z,101577.84
2022-11-26T10:41:37.561Z,101586.84
2022-11-26T10:44:40.094Z,101592.84
2022-11-26T10:47:30.466Z,101592.84
2022-11-26T10:53:34.148Z,101596.19
2022-11-26T10:56:25.234Z,101602.19
2022-11-26T10:59:22.363Z,101607.00
2022-11-26T11:02:26.676Z,101604.81
2022-11-26T11:05:21.976Z,101604.19
2022-11-26T11:08:15.564Z,101607.16
2022-11-26T11:11:05.545Z,101605.16
2022-11-26T11:13:54.620Z,101604.63
2022-11-26T11:16:46.565Z,101602.13
2022-11-26T11:19:36.518Z,101602.44
2022-11-26T11:22:25.318Z,101611.44
2022-11-26T11:25:23.259Z,101613.44
2022-11-26T11:28:18.599Z,101615.44
2022-11-26T11:31:11.389Z,101610.13
2022-11-26T11:34:21.751Z,101620.94
2022-11-26T11:37:15.729Z,101622.78
2022-11-26T11:40:06.288Z,101621.78
2022-11-26T11:42:58.277Z,101620.94
2022-11-26T11:45:53.665Z,101626.44
2022-11-26T11:48:50.187Z,101631.25
2022-11-26T11:51:45.875Z,101630.78
2022-11-26T11:54:41.290Z,101628.41
2022-11-26T11:57:41.192Z,101625.59
2022-11-26T12:00:35.400Z,101622.41
2022-11-26T12:03:49.726Z,101625.06
2022-11-26T12:06:44.322Z,101626.25
2022-11-26T12:09:36.551Z,101624.56
2022-11-26T12:12:27.670Z,101624.72
2022-11-26T12:15:24.668Z,101622.41
2022-11-26T12:18:20.280Z,101630.72
2022-11-26T12:21:11.801Z,101624.72
2022-11-26T12:24:04.437Z,101626.25
2022-11-26T12:26:55.165Z,101628.06
2022-11-26T12:29:46.182Z,101622.88
2022-11-26T12:32:38.149Z,101629.06
2022-11-26T12:35:30.969Z,101622.41
2022-11-26T12:38:25.097Z,101632.06
2022-11-26T12:41:18.958Z,101630.72
2022-11-26T12:44:13.633Z,101633.72
2022-11-26T12:47:11.442Z,101630.41
2022-11-26T12:50:07.763Z,101632.06
2022-11-26T12:53:02.491Z,101636.41
2022-11-26T12:55:56.262Z,101639.41
2022-11-26T12:58:51.646Z,101632.78
2022-11-26T13:01:40.387Z,101636.09
2022-11-26T13:04:49.269Z,101641.75
2022-11-26T13:07:55.675Z,101640.75
2022-11-26T13:10:54.675Z,101646.41
2022-11-26T13:13:47.186Z,101642.25
2022-11-26T13:16:40.310Z,101637.72
2022-11-26T13:19:32.896Z,101640.53
2022-11-26T13:22:55.277Z,101643.41
2022-11-26T13:25:58.539Z,101639.13
2022-11-26T13:29:02.654Z,101648.06
2022-11-26T13:32:01.913Z,101654.06
2022-11-26T13:35:02.430Z,101651.88
2022-11-26T13:38:12.765Z,101653.00
2022-11-26T13:41:22.366Z,101648.06
2022-11-26T13:44:51.718Z,101641.34
2022-11-26T13:47:44.911Z,101645.69
2022-11-26T13:50:37.912Z,101644.00
2022-11-26T13:53:30.138Z,101645.78
2022-11-26T13:56:22.530Z,101650.06
2022-11-26T13:59:17.937Z,101650.41
2022-11-26T14:02:42.326Z,101644.09
2022-11-26T14:06:07.997Z,101644.59
2022-11-26T14:08:58.601Z,101644.78
2022-11-26T14:11:58.008Z,101653.25
2022-11-26T14:14:47.895Z,101652.91
2022-11-26T14:17:57.075Z,101658.09
2022-11-26T14:21:15.502Z,101654.50
2022-11-26T14:24:05.830Z,101660.16
2022-11-26T14:26:54.843Z,101659.53
2022-11-26T14:29:43.477Z,101656.50
2022-11-26T14:32:35.820Z,101658.47
2022-11-26T14:35:33.627Z,101657.34
2022-11-26T14:38:26.174Z,101664.63
2022-11-26T14:41:16.104Z,101661.13
2022-11-26T14:44:08.714Z,101659.13
2022-11-26T14:46:59.880Z,101668.13
2022-11-26T14:49:51.218Z,101668.78
2022-11-26T14:52:41.689Z,101670.44
2022-11-26T14:55:31.466Z,101669.78
2022-11-26T14:58:32.656Z,101671.09
2022-11-26T15:01:23.899Z,101670.31
2022-11-26T15:04:24.158Z,101670.19
2022-11-26T15:07:25.544Z,101671.53
2022-11-26T15:10:22.086Z,101670.63
2022-11-26T15:13:15.854Z,101674.63
2022-11-26T15:16:26.989Z,101670.97
2022-11-26T15:19:16.511Z,101673.50
2022-11-26T15:22:07.988Z,101681.53
2022-11-26T15:24:56.806Z,101677.72
2022-11-26T15:27:53.302Z,101676.56
2022-11-26T15:30:41.945Z,101676.72
2022-11-26T15:33:33.653Z,101680.91
2022-11-26T15:36:22.334Z,101684.72
2022-11-26T15:39:25.876Z,101688.72
2022-11-26T15:42:28.192Z,101683.22
2022-11-26T15:45:18.127Z,101688.03
2022-11-26T15:48:07.753Z,101688.69
2022-11-26T15:50:59.316Z,101684.19
2022-11-26T15:53:49.722Z,101690.84
2022-11-26T15:56:39.646Z,101691.03
2022-11-26T15:59:29.936Z,101687.53
2022-11-26T16:02:20.605Z,101684.84
2022-11-26T16:05:23.992Z,101688.34
2022-11-26T16:08:26.873Z,101672.63
2022-11-26T16:11:23.601Z,101681.00
2022-11-26T16:14:29.062Z,101684.66
2022-11-26T16:17:19.439Z,101691.66
2022-11-26T16:20:18.361Z,101692.53
2022-11-26T16:23:07.013Z,101689.38
2022-11-26T16:26:11.909Z,101694.75
2022-11-26T16:29:00.529Z,101693.72
2022-11-26T16:31:49.151Z,101698.19
2022-11-26T16:34:38.169Z,101698.34
2022-11-26T16:37:28.727Z,101696.50
2022-11-26T16:40:18.970Z,101702.19
2022-11-26T16:43:08.962Z,101703.09
2022-11-26T16:45:57.656Z,101698.75
2022-11-26T16:48:47.118Z,101699.88
2022-11-26T16:51:35.748Z,101699.06
2022-11-26T16:54:24.299Z,101701.75
2022-11-26T16:57:15.807Z,101702.91
2022-11-26T17:00:08.618Z,101717.13
2022-11-26T17:02:57.271Z,101712.78
2022-11-26T17:05:45.951Z,101719.59
2022-11-26T17:08:35.975Z,101725.13
2022-11-26T17:11:24.995Z,101732.78
2022-11-26T17:14:14.087Z,101734.47
2022-11-26T17:17:04.164Z,101736.78
2022-11-26T17:19:53.030Z,101735.28
2022-11-26T17:22:41.894Z,101738.44
2022-11-26T17:25:31.008Z,101739.09
2022-11-26T17:28:20.999Z,101735.25
2022-11-26T17:31:09.605Z,101736.44
2022-11-26T17:33:59.702Z,101737.13
2022-11-26T17:36:49.490Z,101736.28
2022-11-26T17:39:38.435Z,101730.06
2022-11-26T17:42:29.093Z,101745.47
2022-11-26T17:45:21.071Z,101730.59
2022-11-26T17:48:13.368Z,101738.78
2022-11-26T17:51:03.416Z,101738.44
2022-11-26T17:53:52.044Z,101740.09
2022-11-26T17:56:40.759Z,101749.34
2022-11-26T17:59:29.639Z,101748.84
2022-11-26T18:02:18.294Z,101746.16
2022-11-26T18:05:07.810Z,101746.16
2022-11-26T18:07:58.109Z,101745.75
2022-11-26T18:10:46.888Z,101747.28
2022-11-26T18:13:35.593Z,101742.72
2022-11-26T18:16:24.288Z,101740.06
2022-11-26T18:19:14.715Z,101753.44
2022-11-26T18:22:03.488Z,101754.13
2022-11-26T18:24:57.068Z,101749.41
2022-11-26T18:27:46.474Z,101756.88
2022-11-26T18:30:35.117Z,101749.94
2022-11-26T18:33:23.762Z,101757.78
2022-11-26T18:36:12.729Z,101759.78
2022-11-26T18:39:01.777Z,101763.19
2022-11-26T18:41:54.493Z,101762.22
2022-11-26T18:44:45.933Z,101769.25
2022-11-26T18:47:34.893Z,101762.88
2022-11-26T18:50:23.468Z,101767.56
2022-11-26T18:53:12.188Z,101761.22
2022-11-26T18:56:01.029Z,101766.88
2022-11-26T18:58:51.788Z,101764.53
2022-11-26T19:01:40.620Z,101757.19
2022-11-26T19:04:29.329Z,101753.03
2022-11-26T19:07:18.006Z,101757.22
2022-11-26T19:10:07.934Z,101744.47
2022-11-26T19:12:56.573Z,101752.16
2022-11-26T19:15:47.655Z,101755.50
2022-11-26T19:18:43.157Z,101758.28
2022-11-26T19:21:33.075Z,101754.28
2022-11-26T19:24:21.768Z,101755.97
2022-11-26T19:27:10.360Z,101758.09
2022-11-26T19:29:58.946Z,101758.63
2022-11-26T19:32:48.898Z,101758.13
2022-11-26T19:35:40.340Z,101765.16
2022-11-26T19:38:28.977Z,101759.13
2022-11-26T19:41:21.318Z,101769.63
2022-11-26T19:44:13.958Z,101766.63
2022-11-26T19:47:02.668Z,101756.47
2022-11-26T19:49:52.658Z,101755.97
2022-11-26T19:52:46.467Z,101747.97
2022-11-26T19:55:36.443Z,101751.63
2022-11-26T19:58:25.404Z,101761.81
2022-11-26T20:01:15.635Z,101756.28
2022-11-26T20:04:06.015Z,101753.13
2022-11-26T20:06:56.072Z,101756.13
2022-11-26T20:09:44.671Z,101756.97
2022-11-26T20:12:33.356Z,101757.63
2022-11-26T20:15:21.981Z,101756.09
2022-11-26T20:18:11.305Z,101763.47
2022-11-26T20:21:00.182Z,101758.78
2022-11-26T20:23:52.117Z,101760.31
2022-11-26T20:26:42.995Z,101755.34
2022-11-26T20:29:31.696Z,101760.81
2022-11-26T20:32:20.257Z,101750.47
2022-11-26T20:35:09.439Z,101751.31
2022-11-26T20:37:58.095Z,101750.78
2022-11-26T20:40:48.132Z,101748.44
2022-11-26T20:43:36.739Z,101752.31
2022-11-26T20:46:26.127Z,101744.44
2022-11-26T20:49:16.083Z,101748.09
2022-11-26T20:52:07.669Z,101745.97
2022-11-26T20:54:56.344Z,101752.19
2022-11-26T20:57:46.283Z,101756.34
2022-11-26T21:00:34.897Z,101750.81
2022-11-26T21:03:23.832Z,101740.47
2022-11-26T21:06:13.988Z,101746.69
2022-11-26T21:09:04.328Z,101745.81
2022-11-26T21:11:52.999Z,101748.13
2022-11-26T21:14:42.918Z,101743.78
2022-11-26T21:17:31.634Z,101742.41
2022-11-26T21:20:20.739Z,101742.06
2022-11-26T21:23:10.006Z,101741.91
2022-11-26T21:25:58.578Z,101741.88
2022-11-26T21:28:51.274Z,101755.09
2022-11-26T21:31:41.270Z,101762.31
2022-11-26T21:34:29.879Z,101752.47
2022-11-26T21:37:18.856Z,101759.28
2022-11-26T21:40:08.765Z,101754.78
2022-11-26T21:42:57.511Z,101761.44
2022-11-26T21:45:46.076Z,101753.47
2022-11-26T21:48:36.644Z,101753.75
2022-11-26T21:51:27.097Z,101756.44
2022-11-26T21:54:16.371Z,101753.13
2022-11-26T21:57:05.204Z,101749.06
2022-11-26T21:59:53.740Z,101752.91
2022-11-26T22:02:42.425Z,101744.03
2022-11-26T22:05:32.407Z,101747.34
2022-11-26T22:08:21.140Z,101752.47
2022-11-26T22:11:10.932Z,101758.31
2022-11-26T22:13:59.635Z,101760.44
2022-11-26T22:16:51.632Z,101762.09
2022-11-26T22:19:40.484Z,101765.09
2022-11-26T22:22:30.661Z,101774.75
2022-11-26T22:25:19.263Z,101775.81
2022-11-26T22:28:07.935Z,101776.28
2022-11-26T22:30:56.725Z,101778.28
2022-11-26T22:33:45.490Z,101780.44
2022-11-26T22:36:34.598Z,101784.13
2022-11-26T22:39:24.583Z,101797.38
2022-11-26T22:42:13.853Z,101793.66
2022-11-26T22:45:03.026Z,101791.50
2022-11-26T22:47:52.927Z,101799.84
2022-11-26T22:50:41.730Z,101799.25
2022-11-26T22:53:30.568Z,101793.47
2022-11-26T22:56:20.717Z,101794.50
2022-11-26T22:59:10.709Z,101790.66
2022-11-26T23:01:59.355Z,101788.13
2022-11-26T23:04:48.289Z,101781.47
2022-11-26T23:07:36.959Z,101782.28
2022-11-26T23:10:28.262Z,101793.19
2022-11-26T23:13:18.808Z,101787.16
2022-11-26T23:16:09.097Z,101794.84
2022-11-26T23:18:58.804Z,101793.59
2022-11-26T23:21:47.789Z,101793.59
2022-11-26T23:24:36.618Z,101796.59
2022-11-26T23:27:25.316Z,101795.78
2022-11-26T23:30:15.784Z,101787.59
2022-11-26T23:33:04.690Z,101786.59
2022-11-26T23:35:53.336Z,101780.22
2022-11-26T23:38:42.309Z,101787.91
2022-11-26T23:41:31.070Z,101787.22
2022-11-26T23:44:19.709Z,101785.41
2022-11-26T23:47:09.981Z,101782.06
2022-11-26T23:50:00.989Z,101783.00
2022-11-26T23:52:49.872Z,101778.34
2022-11-26T23:55:38.594Z,101770.13
2022-11-26T23:58:27.259Z,101775.66
